Time;durP1;ratioP1;P1;durP2;ratioP2;P2;SDS_P1;SDS_P2;PMS_P1;PMS_P2;Temp;Humidity;BMP_temperature;BMP_pressure;BME280_temperature;BME280_humidity;BME280_pressure;Samples;Min_cycle;Max_cycle;Signal;HPM_P1;HPM_P2
2022/09/27 00:01:22;;;;;;;6.28;1.88;;;14.30;63.00;;;;;;4980312;28;20050;-57
2022/09/27 00:03:54;;;;;;;6.10;1.70;;;14.30;63.00;;;;;;4983902;28;20059;-58
2022/09/27 00:06:24;;;;;;;7.05;2.50;;;14.30;63.00;;;;;;4979861;28;20057;-56
2022/09/27 00:08:51;;;;;;;4.35;1.50;;;14.30;63.10;;;;;;4982992;28;20054;-58
2022/09/27 00:11:26;;;;;;;5.63;1.65;;;14.30;63.10;;;;;;4983702;28;20061;-58
2022/09/27 00:13:55;;;;;;;5.70;1.88;;;14.30;63.20;;;;;;4982401;28;20046;-58
2022/09/27 00:16:23;;;;;;;5.25;1.90;;;14.30;63.10;;;;;;4978463;28;20470;-56
2022/09/27 00:18:50;;;;;;;6.10;2.22;;;14.30;63.20;;;;;;4982894;28;20057;-58
2022/09/27 00:21:18;;;;;;;10.57;1.90;;;14.30;63.20;;;;;;4982825;28;20042;-58
2022/09/27 00:23:45;;;;;;;3.05;1.73;;;14.30;63.30;;;;;;4983410;28;20411;-58
2022/09/27 00:26:13;;;;;;;7.05;2.08;;;14.30;63.40;;;;;;4980109;28;21548;-59
2022/09/27 00:28:41;;;;;;;4.60;1.80;;;14.20;63.40;;;;;;4983609;28;20503;-50
2022/09/27 00:31:20;;;;;;;7.57;1.40;;;14.20;63.50;;;;;;4982616;28;20054;-56
2022/09/27 00:33:48;;;;;;;5.97;1.35;;;14.20;63.30;;;;;;4983039;28;20054;-57
2022/09/27 00:36:15;;;;;;;3.10;1.38;;;14.10;63.10;;;;;;4980412;28;20495;-58
2022/09/27 00:38:42;;;;;;;4.18;1.58;;;14.10;63.10;;;;;;4982064;28;20065;-58
2022/09/27 00:41:15;;;;;;;5.30;1.83;;;14.00;63.40;;;;;;4983689;28;20058;-57
2022/09/27 00:43:45;;;;;;;4.20;1.63;;;13.90;63.70;;;;;;4983250;28;20062;-59
2022/09/27 00:46:19;;;;;;;4.72;1.67;;;13.80;64.10;;;;;;4979362;28;20410;-58
2022/09/27 00:48:47;;;;;;;6.47;2.35;;;13.80;64.40;;;;;;4988283;28;20050;-58
2022/09/27 00:51:15;;;;;;;5.15;2.40;;;13.70;64.90;;;;;;4985856;28;20050;-56
2022/09/27 00:53:47;;;;;;;7.80;2.90;;;13.70;65.20;;;;;;4985677;28;20503;-51
2022/09/27 00:56:20;;;;;;;5.90;2.03;;;13.60;65.50;;;;;;4969997;28;20606;-58
2022/09/27 00:58:55;;;;;;;7.80;2.30;;;13.50;65.80;;;;;;4986965;28;20062;-58
2022/09/27 01:01:24;;;;;;;7.00;2.47;;;13.40;66.10;;;;;;4986577;28;20443;-59
2022/09/27 01:03:57;;;;;;;6.47;2.63;;;13.40;66.50;;;;;;4985364;28;20062;-60
2022/09/27 01:06:24;;;;;;;6.28;2.38;;;13.40;66.70;;;;;;4985752;28;20058;-60
2022/09/27 01:08:51;;;;;;;5.30;2.55;;;13.30;66.40;;;;;;4986617;28;20510;-58
2022/09/27 01:11:28;;;;;;;4.15;2.28;;;13.30;66.70;;;;;;4985009;28;20047;-56
2022/09/27 01:14:08;;;;;;;9.23;3.95;;;13.20;66.80;;;;;;4968387;28;20058;-58
2022/09/27 01:16:47;;;;;;;12.85;4.03;;;13.20;67.10;;;;;;4982562;28;20058;-54
2022/09/27 01:19:27;;;;;;;6.38;3.95;;;13.10;67.40;;;;;;4985527;28;20058;-59
2022/09/27 01:22:02;;;;;;;10.63;4.95;;;13.10;67.60;;;;;;4986998;28;20058;-59
2022/09/27 01:25:00;;;;;;;8.30;3.80;;;13.10;67.80;;;;;;4985347;28;20137;-59
2022/09/27 01:28:01;;;;;;;7.57;3.80;;;13.10;68.40;;;;;;4986954;28;20054;-60
2022/09/27 01:30:38;;;;;;;7.40;3.10;;;13.10;68.40;;;;;;4984516;28;20058;-59
2022/09/27 01:33:17;;;;;;;7.93;2.90;;;13.10;68.60;;;;;;4987364;28;20053;-55
2022/09/27 01:35:54;;;;;;;4.75;2.20;;;13.00;68.60;;;;;;4982153;28;20062;-59
2022/09/27 01:38:29;;;;;;;7.32;1.83;;;13.00;68.70;;;;;;4979684;28;20054;-57
2022/09/27 01:41:05;;;;;;;4.05;1.88;;;13.00;68.90;;;;;;4985002;28;20058;-56
2022/09/27 01:43:38;;;;;;;8.48;2.55;;;13.00;68.90;;;;;;4983908;28;20542;-58
2022/09/27 01:46:11;;;;;;;2.80;1.40;;;12.90;68.90;;;;;;4981850;28;20085;-56
2022/09/27 01:48:43;;;;;;;4.60;1.48;;;12.90;68.90;;;;;;4983638;28;20122;-59
2022/09/27 01:51:16;;;;;;;2.92;1.10;;;12.90;68.80;;;;;;4985001;28;20054;-58
2022/09/27 01:53:45;;;;;;;4.78;1.30;;;12.90;68.90;;;;;;4984084;28;20510;-54
2022/09/27 01:56:18;;;;;;;1.77;1.08;;;12.90;68.80;;;;;;4983264;28;20058;-59
2022/09/27 01:58:50;;;;;;;1.67;1.10;;;12.90;68.70;;;;;;4982752;28;20663;-59
2022/09/27 02:01:22;;;;;;;3.35;1.35;;;12.90;68.60;;;;;;4985258;28;20046;-58
2022/09/27 02:03:51;;;;;;;4.30;1.25;;;13.00;68.70;;;;;;4986215;28;20062;-59
2022/09/27 02:06:23;;;;;;;4.50;1.30;;;12.90;68.50;;;;;;4983709;28;20061;-59
2022/09/27 02:08:56;;;;;;;4.88;1.65;;;12.90;68.40;;;;;;4985113;28;20054;-58
2022/09/27 02:11:23;;;;;;;4.18;1.20;;;12.90;68.40;;;;;;4982632;28;20067;-58
2022/09/27 02:13:56;;;;;;;3.15;1.40;;;12.90;68.30;;;;;;4985362;28;20057;-58
2022/09/27 02:16:33;;;;;;;4.70;1.50;;;12.90;68.30;;;;;;4979954;28;20059;-57
2022/09/27 02:19:09;;;;;;;3.72;1.13;;;12.90;68.30;;;;;;4985032;28;20059;-58
2022/09/27 02:21:42;;;;;;;9.18;1.60;;;12.90;68.40;;;;;;4983373;28;20406;-57
2022/09/27 02:24:15;;;;;;;6.90;2.47;;;12.90;68.30;;;;;;4985332;28;20055;-56
2022/09/27 02:26:46;;;;;;;5.03;1.35;;;12.90;68.40;;;;;;4984372;28;20058;-57
2022/09/27 02:29:16;;;;;;;4.22;2.03;;;12.90;68.50;;;;;;4988303;28;20057;-54
2022/09/27 02:31:45;;;;;;;4.57;1.42;;;12.90;68.50;;;;;;4982346;28;20059;-57
2022/09/27 02:34:17;;;;;;;2.75;1.50;;;12.90;68.80;;;;;;4986020;28;20487;-53
2022/09/27 02:36:45;;;;;;;2.35;1.60;;;12.90;68.70;;;;;;4983282;28;20057;-58
2022/09/27 02:39:12;;;;;;;2.47;1.42;;;12.90;68.70;;;;;;4983404;28;20061;-58
2022/09/27 02:41:39;;;;;;;3.80;1.50;;;12.90;68.70;;;;;;4981728;28;20599;-52
2022/09/27 02:44:11;;;;;;;2.75;1.40;;;12.90;68.60;;;;;;4985398;28;20069;-57
2022/09/27 02:47:03;;;;;;;2.97;1.20;;;12.90;68.70;;;;;;4981519;28;20406;-58
2022/09/27 02:49:42;;;;;;;1.60;0.90;;;12.90;68.50;;;;;;4985960;28;20058;-58
2022/09/27 02:52:17;;;;;;;5.75;1.50;;;12.90;68.30;;;;;;4985850;28;20050;-60
2022/09/27 02:54:52;;;;;;;3.92;1.20;;;12.90;68.30;;;;;;4984295;28;20490;-59
2022/09/27 02:57:29;;;;;;;4.07;1.40;;;12.90;68.40;;;;;;4983011;28;20058;-59
2022/09/27 03:00:05;;;;;;;3.63;1.80;;;12.90;68.60;;;;;;4982146;28;20054;-58
2022/09/27 03:02:40;;;;;;;5.90;1.70;;;12.90;68.60;;;;;;4985940;28;20065;-58
2022/09/27 03:05:10;;;;;;;5.43;1.58;;;12.90;68.70;;;;;;4983262;28;20062;-59
2022/09/27 03:07:38;;;;;;;3.00;1.58;;;12.90;68.70;;;;;;4985034;28;20066;-59
2022/09/27 03:10:07;;;;;;;4.28;1.40;;;12.80;68.80;;;;;;4982583;28;20513;-54
2022/09/27 03:12:34;;;;;;;4.20;1.77;;;12.80;68.90;;;;;;4983633;28;20054;-58
2022/09/27 03:15:01;;;;;;;2.90;1.80;;;12.80;68.90;;;;;;4981593;28;20065;-59
2022/09/27 03:17:29;;;;;;;2.47;1.63;;;12.80;69.10;;;;;;4983326;28;21322;-57
2022/09/27 03:19:57;;;;;;;3.63;1.70;;;12.70;69.10;;;;;;4985377;28;20062;-57
2022/09/27 03:22:25;;;;;;;5.05;1.83;;;12.70;69.40;;;;;;4982066;28;20054;-58
2022/09/27 03:24:52;;;;;;;5.78;2.33;;;12.70;69.40;;;;;;4983250;28;20426;-58
2022/09/27 03:27:19;;;;;;;3.85;1.67;;;12.70;69.30;;;;;;4983975;28;20061;-60
2022/09/27 03:29:46;;;;;;;5.45;1.80;;;12.70;69.50;;;;;;4984833;28;20467;-55
2022/09/27 03:32:14;;;;;;;3.92;2.20;;;12.70;69.60;;;;;;4983581;28;20054;-58
2022/09/27 03:34:41;;;;;;;3.00;1.77;;;12.70;69.60;;;;;;4984925;28;20069;-59
2022/09/27 03:37:09;;;;;;;3.00;1.38;;;12.70;69.50;;;;;;4982486;28;20069;-57
2022/09/27 03:39:37;;;;;;;4.15;1.67;;;12.70;69.40;;;;;;4982463;28;20487;-58
2022/09/27 03:42:04;;;;;;;3.90;1.40;;;12.70;69.30;;;;;;4983745;28;20054;-59
2022/09/27 03:44:32;;;;;;;2.13;1.30;;;12.70;69.30;;;;;;4983254;28;20046;-55
2022/09/27 03:46:59;;;;;;;6.07;1.70;;;12.70;69.20;;;;;;4979579;28;20054;-61
2022/09/27 03:49:26;;;;;;;4.63;1.65;;;12.70;69.20;;;;;;4983443;28;20054;-58
2022/09/27 03:51:54;;;;;;;6.30;1.60;;;12.70;69.10;;;;;;4982969;28;20121;-58
2022/09/27 03:54:23;;;;;;;7.20;1.77;;;12.70;69.20;;;;;;4983292;28;20361;-57
2022/09/27 03:56:51;;;;;;;2.63;1.00;;;12.70;69.30;;;;;;4981691;28;20046;-57
2022/09/27 03:59:19;;;;;;;4.35;1.13;;;12.70;69.20;;;;;;4982720;28;20671;-59
2022/09/27 04:01:46;;;;;;;3.03;1.20;;;12.60;68.90;;;;;;4980473;28;20065;-59
2022/09/27 04:04:13;;;;;;;4.65;1.10;;;12.60;68.90;;;;;;4983840;28;20054;-57
2022/09/27 04:06:40;;;;;;;4.38;1.10;;;12.60;68.90;;;;;;4980514;28;20058;-57
2022/09/27 04:09:08;;;;;;;4.53;1.58;;;12.60;69.00;;;;;;4979885;28;20065;-56
2022/09/27 04:11:36;;;;;;;2.55;0.80;;;12.60;68.80;;;;;;4981674;28;20057;-53
2022/09/27 04:14:04;;;;;;;3.33;0.90;;;12.50;68.50;;;;;;4978451;28;20050;-55
2022/09/27 04:16:32;;;;;;;5.60;0.95;;;12.50;68.40;;;;;;4975212;28;20053;-56
2022/09/27 04:19:00;;;;;;;6.90;1.10;;;12.50;68.50;;;;;;4979643;28;20477;-59
2022/09/27 04:21:27;;;;;;;3.60;0.68;;;12.50;68.50;;;;;;4981706;28;20050;-53
2022/09/27 04:23:54;;;;;;;3.00;0.88;;;12.50;68.30;;;;;;4982885;28;20058;-55
2022/09/27 04:26:22;;;;;;;2.50;0.80;;;12.40;68.30;;;;;;4981469;28;20065;-56
2022/09/27 04:28:51;;;;;;;2.92;0.75;;;12.40;68.40;;;;;;4979795;28;20061;-54
2022/09/27 04:31:18;;;;;;;2.83;0.90;;;12.30;68.50;;;;;;4979205;28;20525;-60
2022/09/27 04:33:46;;;;;;;1.90;1.10;;;12.30;68.50;;;;;;4982707;28;20046;-59
2022/09/27 04:36:26;;;;;;;4.63;1.08;;;12.30;68.70;;;;;;4982069;28;20057;-59
2022/09/27 04:38:53;;;;;;;4.55;1.77;;;12.30;68.90;;;;;;4980972;28;20057;-56
2022/09/27 04:41:22;;;;;;;2.80;1.00;;;12.30;68.80;;;;;;4981453;28;20062;-58
2022/09/27 04:43:51;;;;;;;6.88;1.25;;;12.30;68.90;;;;;;4980992;28;20057;-59
2022/09/27 04:46:19;;;;;;;5.32;1.35;;;12.30;68.70;;;;;;4981735;28;20549;-58
2022/09/27 04:48:46;;;;;;;5.78;1.42;;;12.30;68.60;;;;;;4980420;28;20058;-59
2022/09/27 04:51:16;;;;;;;4.82;1.48;;;12.30;68.40;;;;;;4982850;28;20050;-58
2022/09/27 04:53:43;;;;;;;3.28;1.00;;;12.30;68.10;;;;;;4982744;28;20061;-59
2022/09/27 04:56:11;;;;;;;6.05;1.10;;;12.20;68.20;;;;;;4980956;28;20065;-58
2022/09/27 04:58:39;;;;;;;3.60;1.00;;;12.20;68.20;;;;;;4981860;28;20065;-56
2022/09/27 05:01:08;;;;;;;2.88;0.80;;;12.20;68.20;;;;;;4979264;28;20065;-58
2022/09/27 05:03:35;;;;;;;3.78;1.10;;;12.20;68.20;;;;;;4981896;28;20057;-49
2022/09/27 05:06:02;;;;;;;2.38;0.80;;;12.20;67.90;;;;;;4983757;28;20069;-57
2022/09/27 05:08:30;;;;;;;4.10;1.17;;;12.20;67.90;;;;;;4983895;28;20058;-59
2022/09/27 05:10:57;;;;;;;3.33;0.90;;;12.20;67.70;;;;;;4983359;28;20062;-58
2022/09/27 05:13:24;;;;;;;4.72;0.95;;;12.20;67.60;;;;;;4981827;28;20057;-57
2022/09/27 05:15:52;;;;;;;3.47;0.70;;;12.20;67.50;;;;;;4979683;28;20058;-54
2022/09/27 05:18:20;;;;;;;6.57;1.52;;;12.20;67.40;;;;;;4979719;28;20058;-54
2022/09/27 05:20:47;;;;;;;6.25;1.00;;;12.10;67.50;;;;;;4982185;28;20051;-56
2022/09/27 05:23:15;;;;;;;2.83;1.10;;;12.10;67.50;;;;;;4981852;28;20058;-55
2022/09/27 05:25:42;;;;;;;2.55;0.80;;;12.20;67.60;;;;;;4983386;28;20524;-58
2022/09/27 05:28:09;;;;;;;5.38;0.88;;;12.20;67.50;;;;;;4981934;28;20533;-59
2022/09/27 05:30:37;;;;;;;5.90;1.10;;;12.20;67.50;;;;;;4977841;28;20054;-54
2022/09/27 05:33:04;;;;;;;4.00;1.15;;;12.20;67.60;;;;;;4983905;28;20050;-58
2022/09/27 05:35:34;;;;;;;6.05;1.13;;;12.20;67.40;;;;;;4984404;28;20061;-54
2022/09/27 05:38:01;;;;;;;3.28;1.00;;;12.20;67.30;;;;;;4983046;28;20065;-58
2022/09/27 05:40:29;;;;;;;9.88;0.80;;;12.20;68.00;;;;;;4985999;28;20058;-53
2022/09/27 05:42:56;;;;;;;6.93;0.90;;;12.20;67.00;;;;;;4986564;28;20054;-54
2022/09/27 05:45:25;;;;;;;2.55;0.85;;;12.20;67.00;;;;;;4979413;28;20058;-58
2022/09/27 05:47:54;;;;;;;5.78;1.40;;;12.30;67.00;;;;;;4983630;28;20061;-56
2022/09/27 05:50:21;;;;;;;3.75;0.70;;;12.30;67.00;;;;;;4984387;28;20050;-58
2022/09/27 05:52:50;;;;;;;4.03;0.90;;;12.30;67.00;;;;;;4983583;28;20622;-58
2022/09/27 05:55:17;;;;;;;4.88;0.90;;;12.30;66.90;;;;;;4986092;28;20054;-58
2022/09/27 05:57:55;;;;;;;2.33;0.77;;;12.40;66.80;;;;;;4986721;28;20058;-60
2022/09/27 06:00:24;;;;;;;3.63;1.00;;;12.30;66.20;;;;;;4985093;28;20069;-58
2022/09/27 06:02:56;;;;;;;2.60;0.55;;;12.30;66.00;;;;;;4985877;28;20054;-57
2022/09/27 06:05:23;;;;;;;2.25;0.70;;;12.30;66.10;;;;;;4985005;28;20487;-58
2022/09/27 06:07:52;;;;;;;3.42;0.70;;;12.30;66.00;;;;;;4984627;28;20498;-58
2022/09/27 06:10:20;;;;;;;4.05;0.73;;;12.30;65.80;;;;;;4985741;28;20058;-58
2022/09/27 06:12:47;;;;;;;2.30;0.52;;;12.30;65.70;;;;;;4986420;28;20054;-58
2022/09/27 06:15:14;;;;;;;3.00;0.68;;;12.40;65.80;;;;;;4984331;28;20087;-58
2022/09/27 06:17:41;;;;;;;1.23;0.75;;;12.40;65.90;;;;;;4985702;28;20058;-58
2022/09/27 06:20:09;;;;;;;2.20;0.70;;;12.40;65.90;;;;;;4986016;28;20061;-59
2022/09/27 06:22:36;;;;;;;1.80;0.70;;;12.40;66.00;;;;;;4984494;28;20069;-57
2022/09/27 06:25:06;;;;;;;1.83;0.50;;;12.40;65.90;;;;;;4984553;28;20057;-57
2022/09/27 06:27:33;;;;;;;3.22;0.68;;;12.50;65.70;;;;;;4985752;28;20058;-58
2022/09/27 06:30:01;;;;;;;2.60;0.60;;;12.50;65.50;;;;;;4982755;28;20054;-58
2022/09/27 06:32:28;;;;;;;1.90;0.60;;;12.50;65.30;;;;;;4984783;28;20050;-58
2022/09/27 06:34:55;;;;;;;3.00;0.70;;;12.60;65.20;;;;;;4982857;28;20046;-58
2022/09/27 06:37:25;;;;;;;2.78;0.70;;;12.60;65.00;;;;;;4983695;28;20081;-57
2022/09/27 06:39:52;;;;;;;3.42;0.85;;;12.60;64.80;;;;;;4984210;28;20058;-57
2022/09/27 06:42:21;;;;;;;2.88;0.73;;;12.60;64.80;;;;;;4985322;28;20537;-58
2022/09/27 06:44:48;;;;;;;1.38;0.55;;;12.60;64.50;;;;;;4984009;28;20050;-56
2022/09/27 06:47:16;;;;;;;5.13;0.60;;;12.60;64.50;;;;;;4982476;28;20054;-58
2022/09/27 06:49:43;;;;;;;3.40;0.60;;;12.70;64.70;;;;;;4985328;28;20058;-58
2022/09/27 06:52:10;;;;;;;3.03;0.70;;;12.70;64.70;;;;;;4985305;28;20073;-58
2022/09/27 06:54:38;;;;;;;0.85;0.43;;;12.70;64.50;;;;;;4985322;28;20410;-59
2022/09/27 06:57:05;;;;;;;4.35;0.90;;;12.70;64.40;;;;;;4984058;28;20069;-52
2022/09/27 07:02:30;;;;;;;3.83;0.80;;;12.70;64.60;;;;;;4943926;28;20062;-59
2022/09/27 07:04:58;;;;;;;2.55;0.80;;;12.80;64.80;;;;;;4973920;28;20054;-58
2022/09/27 07:07:25;;;;;;;2.33;0.70;;;12.80;64.90;;;;;;4983642;28;20456;-59
2022/09/27 07:09:53;;;;;;;3.00;0.85;;;12.80;64.70;;;;;;4984825;28;20050;-58
2022/09/27 07:12:23;;;;;;;2.10;0.57;;;12.90;64.70;;;;;;4984362;28;20061;-58
2022/09/27 07:14:52;;;;;;;1.65;0.60;;;12.90;64.50;;;;;;4984454;28;20050;-58
2022/09/27 07:17:19;;;;;;;4.18;0.70;;;12.90;64.10;;;;;;4982873;28;20050;-53
2022/09/27 07:19:46;;;;;;;4.30;0.68;;;12.90;64.20;;;;;;4983852;28;20499;-53
2022/09/27 07:22:14;;;;;;;2.47;1.45;;;12.90;64.10;;;;;;4984516;28;20061;-56
2022/09/27 07:24:41;;;;;;;1.83;0.63;;;13.00;64.20;;;;;;4984218;28;20058;-58
2022/09/27 07:27:08;;;;;;;1.88;0.80;;;13.00;64.30;;;;;;4980439;28;20062;-57
2022/09/27 07:29:35;;;;;;;4.18;0.57;;;13.00;64.50;;;;;;4983953;28;20057;-55
2022/09/27 07:32:04;;;;;;;4.03;0.60;;;13.00;64.50;;;;;;4981669;28;20050;-59
2022/09/27 07:34:33;;;;;;;2.97;0.75;;;13.10;64.20;;;;;;4979633;28;20062;-59
2022/09/27 07:37:02;;;;;;;3.53;0.60;;;13.10;64.20;;;;;;4977237;28;20058;-53
2022/09/27 07:39:29;;;;;;;2.03;0.60;;;13.20;64.10;;;;;;4983691;28;20494;-59
2022/09/27 07:41:56;;;;;;;2.97;0.85;;;13.20;64.00;;;;;;4983935;28;20061;-58
2022/09/27 07:44:24;;;;;;;1.90;0.63;;;13.20;63.70;;;;;;4983013;28;20065;-56
2022/09/27 07:46:51;;;;;;;5.82;0.90;;;13.30;63.60;;;;;;4979146;28;20517;-57
2022/09/27 07:49:19;;;;;;;3.97;1.15;;;13.30;63.30;;;;;;4979578;28;20057;-54
2022/09/27 07:51:47;;;;;;;3.40;0.68;;;13.30;63.40;;;;;;4982874;28;20065;-58
2022/09/27 07:54:14;;;;;;;4.78;0.88;;;13.30;63.50;;;;;;4984481;28;20498;-58
2022/09/27 07:56:41;;;;;;;3.50;0.50;;;13.30;63.20;;;;;;4981843;28;20080;-58
2022/09/27 07:59:08;;;;;;;2.33;0.65;;;13.40;63.00;;;;;;4981075;28;20074;-58
2022/09/27 08:01:35;;;;;;;4.15;0.77;;;13.40;62.90;;;;;;4980636;28;20061;-55
2022/09/27 08:04:04;;;;;;;2.20;0.82;;;13.40;62.90;;;;;;4981361;28;20501;-58
2022/09/27 08:06:33;;;;;;;3.95;0.82;;;13.40;63.10;;;;;;4981415;28;20434;-57
2022/09/27 08:09:00;;;;;;;2.63;0.80;;;13.40;63.10;;;;;;4980861;28;20058;-58
2022/09/27 08:11:27;;;;;;;1.88;0.52;;;13.50;63.10;;;;;;4980529;28;20050;-58
2022/09/27 08:13:55;;;;;;;2.50;0.50;;;13.50;63.10;;;;;;4980754;28;20054;-58
2022/09/27 08:16:23;;;;;;;1.42;0.40;;;13.50;62.70;;;;;;4976222;28;20069;-58
2022/09/27 08:18:50;;;;;;;3.80;0.60;;;13.50;62.30;;;;;;4980737;28;20062;-58
2022/09/27 08:21:17;;;;;;;3.47;0.70;;;13.50;62.40;;;;;;4978578;28;20058;-57
2022/09/27 08:23:46;;;;;;;1.27;0.52;;;13.60;62.30;;;;;;4981735;28;20396;-58
2022/09/27 08:26:13;;;;;;;2.45;0.73;;;13.60;61.90;;;;;;4974368;28;20046;-59
2022/09/27 08:28:40;;;;;;;2.75;0.55;;;13.60;61.80;;;;;;4975566;28;20061;-57
2022/09/27 08:31:07;;;;;;;2.17;0.70;;;13.60;61.90;;;;;;4979065;28;20073;-54
2022/09/27 08:33:35;;;;;;;0.88;0.43;;;13.60;61.30;;;;;;4982858;28;20054;-56
2022/09/27 08:36:02;;;;;;;4.15;0.60;;;13.60;60.90;;;;;;4980729;28;20061;-54
2022/09/27 08:38:29;;;;;;;4.43;0.63;;;13.60;61.10;;;;;;4980553;28;20436;-57
2022/09/27 08:41:06;;;;;;;3.60;0.50;;;13.60;60.90;;;;;;4981028;28;20054;-59
2022/09/27 08:43:38;;;;;;;3.60;0.43;;;13.60;60.00;;;;;;4981784;28;20050;-59
2022/09/27 08:46:15;;;;;;;2.50;0.60;;;13.70;60.10;;;;;;4974885;28;20050;-57
2022/09/27 08:48:44;;;;;;;1.65;0.32;;;13.70;59.90;;;;;;4980028;28;20433;-61
2022/09/27 08:51:14;;;;;;;2.75;0.55;;;13.70;59.70;;;;;;4980104;28;20062;-59
2022/09/27 08:53:46;;;;;;;4.07;0.68;;;13.70;59.70;;;;;;4981426;28;20065;-56
2022/09/27 08:56:20;;;;;;;0.70;0.20;;;13.70;60.10;;;;;;4972082;28;20394;-59
2022/09/27 08:58:52;;;;;;;0.80;0.43;;;13.80;60.10;;;;;;4979420;28;20058;-58
2022/09/27 09:01:20;;;;;;;1.27;0.38;;;13.80;60.00;;;;;;4978901;28;20055;-58
2022/09/27 09:03:50;;;;;;;1.15;0.30;;;13.90;60.10;;;;;;4977159;28;20065;-52
2022/09/27 09:06:23;;;;;;;1.75;0.50;;;13.90;59.70;;;;;;4978351;28;20054;-58
2022/09/27 09:09:02;;;;;;;3.60;0.60;;;14.00;59.60;;;;;;4984426;28;20054;-58
2022/09/27 09:14:45;;;;;;;0.82;0.20;;;14.10;59.30;;;;;;4989077;28;20053;-55
2022/09/27 09:17:24;;;;;;;0.75;0.30;;;14.10;59.20;;;;;;4980126;28;20061;-58
2022/09/27 09:20:11;;;;;;;1.30;0.28;;;14.20;59.50;;;;;;4986307;28;20482;-58
2022/09/27 09:22:55;;;;;;;1.48;0.40;;;14.20;58.90;;;;;;4986283;28;20058;-58
2022/09/27 09:25:28;;;;;;;1.40;0.30;;;14.20;58.90;;;;;;4985189;28;20090;-59
2022/09/27 09:28:12;;;;;;;0.93;0.30;;;14.30;58.90;;;;;;4986257;28;20065;-58
2022/09/27 09:30:48;;;;;;;1.65;0.40;;;14.30;58.70;;;;;;4986164;28;20057;-58
2022/09/27 09:33:25;;;;;;;1.80;0.35;;;14.30;58.50;;;;;;4986832;28;20058;-59
2022/09/27 09:35:57;;;;;;;2.33;0.50;;;14.40;59.20;;;;;;4981831;28;20070;-58
2022/09/27 09:38:34;;;;;;;1.60;0.40;;;14.40;59.10;;;;;;4984286;28;20354;-58
2022/09/27 09:41:06;;;;;;;0.63;0.30;;;14.40;59.10;;;;;;4984736;28;20518;-58
2022/09/27 09:43:39;;;;;;;1.60;0.50;;;14.50;58.70;;;;;;4985012;28;20050;-58
2022/09/27 09:46:11;;;;;;;1.55;0.40;;;14.50;58.20;;;;;;4977199;28;20073;-60
2022/09/27 09:48:43;;;;;;;1.48;0.30;;;14.50;58.00;;;;;;4985119;28;20054;-57
2022/09/27 09:51:17;;;;;;;0.88;0.47;;;14.50;57.90;;;;;;4983863;28;20054;-53
2022/09/27 09:53:52;;;;;;;2.95;0.25;;;14.50;58.00;;;;;;4984795;28;20491;-58
2022/09/27 09:56:24;;;;;;;1.60;0.28;;;14.50;58.10;;;;;;4981537;28;20478;-58
2022/09/27 09:58:56;;;;;;;3.65;0.55;;;14.50;58.40;;;;;;4985499;28;20130;-57
2022/09/27 10:01:27;;;;;;;1.30;0.40;;;14.50;58.40;;;;;;4982835;28;20057;-58
2022/09/27 10:03:55;;;;;;;0.47;0.30;;;14.50;58.30;;;;;;4983282;28;20906;-58
2022/09/27 10:06:24;;;;;;;3.47;0.30;;;14.60;58.60;;;;;;4984202;28;20058;-59
2022/09/27 10:08:53;;;;;;;2.67;0.52;;;14.60;58.60;;;;;;4983025;28;20054;-58
2022/09/27 10:11:24;;;;;;;0.50;0.20;;;14.70;58.50;;;;;;4983238;28;20062;-58
2022/09/27 10:13:55;;;;;;;0.25;0.20;;;14.70;58.20;;;;;;4981699;28;20065;-57
2022/09/27 10:16:24;;;;;;;2.17;0.30;;;14.80;57.70;;;;;;4979986;28;20916;-57
2022/09/27 10:18:57;;;;;;;2.53;0.50;;;14.80;56.80;;;;;;4983048;28;20054;-57
2022/09/27 10:21:28;;;;;;;0.93;0.55;;;14.90;57.10;;;;;;4985171;28;20061;-57
2022/09/27 10:24:11;;;;;;;1.05;0.40;;;14.80;56.30;;;;;;4985275;28;20062;-58
2022/09/27 10:26:42;;;;;;;1.30;0.30;;;14.90;56.20;;;;;;4981230;28;20054;-57
2022/09/27 10:29:25;;;;;;;0.82;0.40;;;14.90;56.30;;;;;;4981369;28;20077;-59
2022/09/27 10:31:53;;;;;;;1.17;0.32;;;15.00;56.10;;;;;;4983099;28;20414;-58
2022/09/27 10:34:30;;;;;;;1.35;0.30;;;15.00;56.40;;;;;;4983876;28;20061;-58
2022/09/27 10:37:16;;;;;;;2.05;0.40;;;15.00;56.00;;;;;;4982270;28;20054;-58
2022/09/27 10:39:44;;;;;;;1.27;0.43;;;15.00;55.70;;;;;;4983500;28;20054;-58
2022/09/27 10:42:30;;;;;;;1.60;0.40;;;15.00;55.70;;;;;;4984852;28;20493;-59
2022/09/27 10:44:59;;;;;;;3.53;0.60;;;15.00;54.90;;;;;;4980705;28;20077;-56
2022/09/27 10:47:27;;;;;;;2.63;0.90;;;15.00;55.00;;;;;;4978975;28;20047;-58
2022/09/27 10:50:05;;;;;;;2.60;0.45;;;14.90;55.00;;;;;;4984815;28;20054;-58
2022/09/27 10:52:32;;;;;;;2.13;0.60;;;14.90;55.20;;;;;;4986748;28;20066;-56
2022/09/27 10:55:05;;;;;;;2.53;0.63;;;14.90;54.60;;;;;;4984279;28;20124;-56
2022/09/27 10:57:32;;;;;;;1.48;0.75;;;14.80;55.10;;;;;;4982304;28;20053;-56
2022/09/27 11:00:06;;;;;;;2.35;0.77;;;14.80;55.50;;;;;;4983155;28;20582;-57
2022/09/27 11:02:36;;;;;;;2.05;0.70;;;14.80;54.80;;;;;;4985787;28;20061;-58
2022/09/27 11:05:11;;;;;;;3.72;0.50;;;14.80;55.20;;;;;;4984662;28;20050;-63
2022/09/27 11:07:49;;;;;;;0.82;0.50;;;14.80;54.30;;;;;;4984222;28;20478;-57
2022/09/27 11:10:26;;;;;;;3.25;0.60;;;14.80;54.80;;;;;;4982543;28;20065;-59
2022/09/27 11:13:07;;;;;;;1.83;0.55;;;14.80;54.70;;;;;;4984924;28;20046;-53
2022/09/27 11:15:45;;;;;;;3.15;0.93;;;14.80;54.70;;;;;;4981413;28;20402;-55
2022/09/27 11:18:21;;;;;;;4.18;0.60;;;14.80;54.70;;;;;;4983242;28;20065;-59
2022/09/27 11:20:55;;;;;;;1.77;0.70;;;14.80;54.70;;;;;;4984472;28;20050;-54
2022/09/27 11:23:38;;;;;;;1.92;0.85;;;14.80;54.60;;;;;;4981651;28;20549;-56
2022/09/27 11:26:20;;;;;;;3.55;0.63;;;14.80;54.30;;;;;;4983216;28;20050;-58
2022/09/27 11:28:57;;;;;;;3.53;0.60;;;14.80;54.20;;;;;;4983301;28;20058;-56
2022/09/27 11:31:36;;;;;;;2.28;0.52;;;14.80;54.00;;;;;;4981852;28;20062;-58
2022/09/27 11:34:31;;;;;;;2.10;0.45;;;14.90;54.50;;;;;;4984282;28;20516;-59
2022/09/27 11:37:04;;;;;;;;;;;14.90;54.60;;;;;;4984729;28;20054;-58
2022/09/27 11:39:44;;;;;;;4.07;0.70;;;14.90;54.50;;;;;;4984118;28;19921;-58
2022/09/27 11:42:34;;;;;;;1.05;0.40;;;14.90;53.90;;;;;;4982545;28;20050;-58
2022/09/27 11:45:18;;;;;;;1.92;0.60;;;14.90;53.80;;;;;;4983265;28;20498;-58
2022/09/27 11:47:56;;;;;;;3.55;0.88;;;14.90;54.30;;;;;;4985436;28;20057;-58
2022/09/27 11:50:56;;;;;;;1.50;0.40;;;15.00;54.70;;;;;;4983535;28;21781;-58
2022/09/27 11:53:39;;;;;;;1.73;0.32;;;15.00;54.50;;;;;;4984366;28;20061;-57
2022/09/27 11:56:18;;;;;;;0.80;0.40;;;15.00;54.60;;;;;;4981622;28;21327;-57
2022/09/27 11:58:59;;;;;;;2.40;0.65;;;15.00;54.60;;;;;;4978735;28;20133;-57
2022/09/27 12:01:35;;;;;;;1.50;0.47;;;15.00;54.40;;;;;;4984156;28;20065;-57
2022/09/27 12:04:27;;;;;;;1.50;0.63;;;15.10;54.70;;;;;;4985008;28;20061;-57
2022/09/27 12:06:58;;;;;;;0.68;0.40;;;15.10;54.90;;;;;;4979656;28;20062;-57
2022/09/27 12:09:30;;;;;;;2.25;0.80;;;15.10;55.20;;;;;;4982048;28;20061;-58
2022/09/27 12:12:00;;;;;;;1.85;0.57;;;15.10;55.30;;;;;;4985950;28;20058;-54
2022/09/27 12:14:36;;;;;;;2.10;0.68;;;15.10;55.30;;;;;;4984446;28;20046;-56
2022/09/27 12:17:07;;;;;;;2.75;0.80;;;15.10;55.10;;;;;;4984485;28;20065;-58
2022/09/27 12:19:41;;;;;;;1.55;0.52;;;15.10;55.10;;;;;;4977346;28;20068;-59
2022/09/27 12:22:15;;;;;;;1.25;0.50;;;15.10;55.20;;;;;;4986253;28;20062;-57
2022/09/27 12:24:44;;;;;;;1.35;0.70;;;15.10;55.30;;;;;;4983274;28;20054;-55
2022/09/27 12:27:19;;;;;;;2.72;0.50;;;15.10;55.30;;;;;;4983763;28;20054;-57
2022/09/27 12:29:48;;;;;;;1.85;0.60;;;15.20;55.30;;;;;;4983654;28;20069;-56
2022/09/27 12:32:21;;;;;;;6.18;1.08;;;15.10;55.00;;;;;;4983033;28;20481;-57
2022/09/27 12:34:56;;;;;;;1.87;0.90;;;15.10;54.80;;;;;;4983802;28;20058;-58
2022/09/27 12:37:28;;;;;;;3.60;1.05;;;15.20;54.40;;;;;;4986403;28;20482;-57
2022/09/27 12:40:00;;;;;;;1.63;0.60;;;15.20;54.30;;;;;;4983654;28;20915;-58
2022/09/27 12:42:33;;;;;;;2.78;0.60;;;15.20;54.20;;;;;;4984571;28;20068;-57
2022/09/27 12:45:00;;;;;;;3.33;0.93;;;15.20;54.10;;;;;;4983913;28;20498;-58
2022/09/27 12:47:44;;;;;;;2.55;0.80;;;15.20;53.90;;;;;;4972618;28;20561;-59
2022/09/27 12:50:22;;;;;;;2.90;1.23;;;15.20;54.00;;;;;;4973138;28;20054;-58
2022/09/27 12:52:54;;;;;;;2.45;0.80;;;15.30;53.90;;;;;;4978158;28;20058;-56
2022/09/27 12:55:42;;;;;;;2.75;0.80;;;15.30;53.90;;;;;;4974846;28;20046;-58
2022/09/27 12:58:44;;;;;;;4.05;1.00;;;15.30;54.00;;;;;;4981566;28;20050;-58
2022/09/27 13:01:24;;;;;;;2.20;0.70;;;15.30;53.90;;;;;;4980936;28;20057;-59
2022/09/27 13:04:15;;;;;;;2.03;0.80;;;15.40;53.80;;;;;;4977299;28;20062;-58
2022/09/27 13:06:58;;;;;;;2.38;0.90;;;15.40;53.40;;;;;;4981099;28;20066;-57
2022/09/27 13:09:55;;;;;;;9.80;1.00;;;15.40;53.40;;;;;;4980744;28;20053;-57
2022/09/27 13:12:26;;;;;;;4.43;1.00;;;15.40;53.50;;;;;;4986694;28;20069;-57
2022/09/27 13:15:00;;;;;;;3.70;1.00;;;15.40;53.30;;;;;;4983745;28;20061;-57
2022/09/27 13:18:02;;;;;;;4.88;1.13;;;15.40;53.20;;;;;;4978408;28;20055;-59